FranceFixed distance
Grand Raid Ventoux by UTMB - 100K
26–27 Apr2025
Distance
83km
Finishers
764686 men78 women
Winning time
7:35:47h
Median pace
5.92km/h
Pace distribution
764 finishers · 4.22–10.93 km/h · mean 6.07
Every finisher ran the same 83 km course, so these paces are directly comparable.
Histogram of finisher pace. 764 finishers ranged from 4.22 to 10.93 kilometres per hour, with a mean of 6.07 and a median of 5.92. The busiest band is 5.5 to 6.0 kilometres per hour, with 150 finishers.
Results
Ranks 51–100 of 764
| Rank | Runner | Time | Pace | Cat. | Placing |
|---|---|---|---|---|---|
| 51 | Nutripure | 10:32:24h | 7.88 | M23 | 41st M · 24th M23 |
| 52 | 10:32:40h | 7.87 | M23 | 42nd M · 25th M23 | |
| 53 | 10:32:41h | 7.87 | M23 | 43rd M · 26th M23 | |
| 54 | Team Instinct | 10:40:55h | 7.77 | M45 | 44th M · 3rd M45 |
| 55 | Russin-LES-Bains | 10:41:27h | 7.76 | M45 | 45th M · 4th M45 |
| 56 | 10:41:35h | 7.76 | M23 | 46th M · 27th M23 | |
| 57 | 10:41:40h | 7.76 | M35 | 47th M · 14th M35 | |
| 58 | 10:46:47h | 7.70 | M23 | 48th M · 28th M23 | |
| 59 | C4H2-Courir À Juvignac | 10:48:47h | 7.68 | M40 | 49th M · 3rd M40 |
| 60 | 10:49:28h | 7.67 | M35 | 50th M · 15th M35 | |
| 61 | 10:50:48h | 7.65 | M35 | 51st M · 16th M35 | |
| 62 | 10:51:29h | 7.64 | M40 | 52nd M · 4th M40 | |
| 63 | 10:51:31h | 7.64 | M23 | 53rd M · 29th M23 | |
| 64 | 10:52:25h | 7.63 | M23 | 54th M · 30th M23 | |
| 65 | 10:52:26h | 7.63 | M23 | 55th M · 31st M23 | |
| 66 | 10:52:33h | 7.63 | M23 | 56th M · 32nd M23 | |
| 67 | 10:53:20h | 7.62 | M23 | 57th M · 33rd M23 | |
| 68 | 10:53:35h | 7.62 | M35 | 58th M · 17th M35 | |
| 69 | Team Fragilus | 10:57:18h | 7.58 | M23 | 59th M · 34th M23 |
| 70 | Maghribi | 10:57:21h | 7.58 | M45 | 60th M · 5th M45 |
| 71 | 10:57:42h | 7.57 | W40 | 11th F · 2nd W40 | |
| 72 | 10:58:37h | 7.56 | M23 | 61st M · 35th M23 | |
| 73 | Station Running Club X... | 11:01:10h | 7.53 | M50 | 62nd M · 1st M50 |
| 74 | 11:01:27h | 7.53 | M35 | 63rd M · 18th M35 | |
| 74 | 11:01:27h | 7.53 | M40 | 63rd M · 5th M40 | |
| 76 | TOS Athletisme | 11:01:42h | 7.53 | M45 | 65th M · 6th M45 |
| 77 | 11:02:51h | 7.51 | M40 | 66th M · 6th M40 | |
| 78 | Gravity Running Experi... | 11:04:59h | 7.49 | M23 | 67th M · 36th M23 |
| 79 | 11:05:46h | 7.48 | W23 | 12th F · 4th W23 | |
| 80 | 11:05:57h | 7.48 | M40 | 68th M · 7th M40 | |
| 81 | 11:06:52h | 7.47 | M45 | 69th M · 7th M45 | |
| 82 | ES Montgeron | 11:07:50h | 7.46 | M40 | 70th M · 8th M40 |
| 83 | 11:08:53h | 7.45 | M40 | 71st M · 9th M40 | |
| 84 | 11:11:49h | 7.41 | M23 | 72nd M · 37th M23 | |
| 85 | 11:12:03h | 7.41 | M23 | 73rd M · 38th M23 | |
| 86 | 11:14:41h | 7.38 | M35 | 74th M · 19th M35 | |
| 87 | 11:15:58h | 7.37 | M40 | 75th M · 10th M40 | |
| 88 | 11:16:49h | 7.36 | W23 | 13th F · 5th W23 | |
| 89 | les Fusées du Mejean | 11:17:41h | 7.35 | M35 | 76th M · 20th M35 |
| 90 | Euroclean | 11:18:45h | 7.34 | M40 | 77th M · 11th M40 |
| 91 | 11:18:54h | 7.33 | M23 | 78th M · 39th M23 | |
| 92 | Acnm | 11:19:25h | 7.33 | M40 | 79th M · 12th M40 |
| 93 | 11:19:35h | 7.33 | M35 | 80th M · 21st M35 | |
| 94 | 11:22:51h | 7.29 | M23 | 81st M · 40th M23 | |
| 95 | Association Culturelle... | 11:26:19h | 7.26 | M35 | 82nd M · 22nd M35 |
| 96 | Triathlon Club Torcy | 11:26:56h | 7.25 | M45 | 83rd M · 8th M45 |
| 97 | HR Training | 11:27:17h | 7.25 | M40 | 84th M · 13th M40 |
| 98 | 11:27:35h | 7.24 | M35 | 85th M · 23rd M35 | |
| 99 | 11:27:48h | 7.24 | M23 | 86th M · 41st M23 | |
| 100 | 11:27:54h | 7.24 | M23 | 87th M · 42nd M23 |
- 51Nutripure41st M · 24th M23Time10:32:24hPace7.88Cat.M23
- 5242nd M · 25th M23Time10:32:40hPace7.87Cat.M23
- 5343rd M · 26th M23Time10:32:41hPace7.87Cat.M23
- 54Team Instinct44th M · 3rd M45Time10:40:55hPace7.77Cat.M45
- 55Russin-LES-Bains45th M · 4th M45Time10:41:27hPace7.76Cat.M45
- 5646th M · 27th M23Time10:41:35hPace7.76Cat.M23
- 5747th M · 14th M35Time10:41:40hPace7.76Cat.M35
- 5848th M · 28th M23Time10:46:47hPace7.70Cat.M23
- 59C4H2-Courir À Juvignac49th M · 3rd M40Time10:48:47hPace7.68Cat.M40
- 6050th M · 15th M35Time10:49:28hPace7.67Cat.M35
- 6151st M · 16th M35Time10:50:48hPace7.65Cat.M35
- 6252nd M · 4th M40Time10:51:29hPace7.64Cat.M40
- 6353rd M · 29th M23Time10:51:31hPace7.64Cat.M23
- 6454th M · 30th M23Time10:52:25hPace7.63Cat.M23
- 6555th M · 31st M23Time10:52:26hPace7.63Cat.M23
- 6656th M · 32nd M23Time10:52:33hPace7.63Cat.M23
- 6757th M · 33rd M23Time10:53:20hPace7.62Cat.M23
- 6858th M · 17th M35Time10:53:35hPace7.62Cat.M35
- 69Team Fragilus59th M · 34th M23Time10:57:18hPace7.58Cat.M23
- 70Maghribi60th M · 5th M45Time10:57:21hPace7.58Cat.M45
- 7111th F · 2nd W40Time10:57:42hPace7.57Cat.W40
- 7261st M · 35th M23Time10:58:37hPace7.56Cat.M23
- 73Station Running Club X...62nd M · 1st M50Time11:01:10hPace7.53Cat.M50
- 7463rd M · 18th M35Time11:01:27hPace7.53Cat.M35
- 7463rd M · 5th M40Time11:01:27hPace7.53Cat.M40
- 76TOS Athletisme65th M · 6th M45Time11:01:42hPace7.53Cat.M45
- 7766th M · 6th M40Time11:02:51hPace7.51Cat.M40
- 78Gravity Running Experi...67th M · 36th M23Time11:04:59hPace7.49Cat.M23
- 7912th F · 4th W23Time11:05:46hPace7.48Cat.W23
- 8068th M · 7th M40Time11:05:57hPace7.48Cat.M40
- 8169th M · 7th M45Time11:06:52hPace7.47Cat.M45
- 82ES Montgeron70th M · 8th M40Time11:07:50hPace7.46Cat.M40
- 8371st M · 9th M40Time11:08:53hPace7.45Cat.M40
- 8472nd M · 37th M23Time11:11:49hPace7.41Cat.M23
- 8573rd M · 38th M23Time11:12:03hPace7.41Cat.M23
- 8674th M · 19th M35Time11:14:41hPace7.38Cat.M35
- 8775th M · 10th M40Time11:15:58hPace7.37Cat.M40
- 8813th F · 5th W23Time11:16:49hPace7.36Cat.W23
- 89les Fusées du Mejean76th M · 20th M35Time11:17:41hPace7.35Cat.M35
- 90Euroclean77th M · 11th M40Time11:18:45hPace7.34Cat.M40
- 9178th M · 39th M23Time11:18:54hPace7.33Cat.M23
- 92Acnm79th M · 12th M40Time11:19:25hPace7.33Cat.M40
- 9380th M · 21st M35Time11:19:35hPace7.33Cat.M35
- 9481st M · 40th M23Time11:22:51hPace7.29Cat.M23
- 95Association Culturelle...82nd M · 22nd M35Time11:26:19hPace7.26Cat.M35
- 96Triathlon Club Torcy83rd M · 8th M45Time11:26:56hPace7.25Cat.M45
- 97HR Training84th M · 13th M40Time11:27:17hPace7.25Cat.M40
- 9885th M · 23rd M35Time11:27:35hPace7.24Cat.M35
- 9986th M · 41st M23Time11:27:48hPace7.24Cat.M23
- 10087th M · 42nd M23Time11:27:54hPace7.24Cat.M23
Showing ranks 51–100 of 764